Time;durP1;ratioP1;P1;durP2;ratioP2;P2;SDS_P1;SDS_P2;PMS_P1;PMS_P2;Temp;Humidity;BMP_temperature;BMP_pressure;BME280_temperature;BME280_humidity;BME280_pressure;Samples;Min_cycle;Max_cycle;Signal;HPM_P1;HPM_P2
2021/09/30 00:00:58;;;;;;;6.83;3.80;;;;;;;13.21;100.00;97169.25;5052261;28;20221;-77
2021/09/30 00:03:25;;;;;;;5.10;4.40;;;;;;;13.18;100.00;97174.00;5051428;28;20194;-77
2021/09/30 00:05:53;;;;;;;4.50;4.20;;;;;;;13.19;100.00;97173.00;5051941;28;20190;-77
2021/09/30 00:08:20;;;;;;;6.13;5.53;;;;;;;13.13;100.00;97169.19;5051916;28;20193;-77
2021/09/30 00:10:55;;;;;;;6.63;6.13;;;;;;;12.92;100.00;97164.22;5051615;28;20193;-77
2021/09/30 00:13:38;;;;;;;7.47;5.97;;;;;;;12.77;100.00;97160.44;5051583;28;20189;-77
2021/09/30 00:32:46;;;;;;;7.50;6.80;;;;;;;13.03;100.00;97156.06;5051513;28;20212;-77
2021/09/30 00:35:26;;;;;;;7.47;6.80;;;;;;;13.09;100.00;97149.31;5051630;28;20186;-76
2021/09/30 00:40:53;;;;;;;9.63;7.23;;;;;;;12.94;100.00;97146.41;5051763;28;20181;-76
2021/09/30 00:46:06;;;;;;;7.53;6.93;;;;;;;12.88;100.00;97146.19;5055484;28;20185;-76
2021/09/30 00:48:52;;;;;;;9.93;6.80;;;;;;;13.01;100.00;97147.47;5055309;28;20193;-77
2021/09/30 00:51:26;;;;;;;7.37;6.60;;;;;;;13.08;100.00;97139.75;5055283;28;20213;-76
2021/09/30 02:18:27;;;;;;;7.40;5.57;;;;;;;12.88;100.00;97152.28;5053880;28;20181;-76
2021/09/30 02:21:14;;;;;;;5.93;5.47;;;;;;;12.90;100.00;97150.34;5053630;28;20671;-76
2021/09/30 02:24:04;;;;;;;10.30;5.77;;;;;;;12.91;100.00;97144.06;5053498;28;20193;-77
2021/09/30 02:29:33;;;;;;;5.97;5.47;;;;;;;13.01;100.00;97152.75;5053762;28;20553;-77
2021/09/30 03:00:00;;;;;;;6.37;5.03;;;;;;;12.89;100.00;97153.97;5053442;28;20188;-77
2021/09/30 03:02:28;;;;;;;6.93;5.60;;;;;;;12.93;100.00;97159.78;5052562;28;20192;-77
2021/09/30 03:04:57;;;;;;;6.80;6.20;;;;;;;12.79;100.00;97166.41;5066911;28;20201;-77
2021/09/30 03:07:26;;;;;;;6.80;6.20;;;;;;;12.70;100.00;97162.00;5052867;28;20198;-77
2021/09/30 03:09:55;;;;;;;9.67;5.47;;;;;;;12.66;100.00;97168.56;5052557;28;20212;-77
2021/09/30 03:12:28;;;;;;;6.10;5.70;;;;;;;12.84;100.00;97161.50;5056426;28;20713;-77
2021/09/30 03:15:03;;;;;;;7.67;6.97;;;;;;;12.80;100.00;97168.06;5052690;28;20331;-77
2021/09/30 03:17:42;;;;;;;8.20;6.07;;;;;;;12.88;100.00;97170.75;5066488;28;20565;-77
2021/09/30 03:20:30;;;;;;;10.27;7.53;;;;;;;12.83;100.00;97165.13;5072959;28;20185;-78
2021/09/30 03:23:00;;;;;;;11.37;6.53;;;;;;;12.70;100.00;97169.94;5067849;28;20731;-77
2021/09/30 03:25:27;;;;;;;9.27;7.33;;;;;;;12.71;100.00;97167.16;5071325;28;20250;-77
2021/09/30 03:27:57;;;;;;;8.20;7.40;;;;;;;12.78;100.00;97165.56;5069250;28;20204;-77
2021/09/30 03:30:26;;;;;;;8.30;6.20;;;;;;;12.76;100.00;97166.69;5053737;28;20210;-77
2021/09/30 03:32:53;;;;;;;7.97;6.73;;;;;;;12.65;100.00;97167.75;5066372;28;20231;-78
2021/09/30 03:35:21;;;;;;;7.83;6.97;;;;;;;12.69;100.00;97165.63;5070886;28;20188;-78
2021/09/30 03:37:48;;;;;;;6.93;6.43;;;;;;;12.60;100.00;97175.25;5070621;28;20208;-77
2021/09/30 03:40:17;;;;;;;6.50;5.87;;;;;;;12.76;100.00;97164.06;5070680;28;20740;-77
2021/09/30 03:42:44;;;;;;;6.93;6.23;;;;;;;12.65;100.00;97172.19;5069966;28;20224;-77
2021/09/30 03:45:11;;;;;;;7.90;7.20;;;;;;;12.67;100.00;97170.22;5063724;28;20233;-77
2021/09/30 03:47:39;;;;;;;8.47;7.67;;;;;;;12.56;100.00;97173.91;5067882;28;20780;-77
2021/09/30 03:50:14;;;;;;;7.53;6.83;;;;;;;12.53;100.00;97175.03;5054976;28;20674;-77
2021/09/30 03:52:54;;;;;;;7.20;6.60;;;;;;;12.43;100.00;97176.06;5050689;28;20205;-77
2021/09/30 03:55:44;;;;;;;9.10;8.20;;;;;;;12.35;100.00;97171.53;5050729;28;20190;-76
2021/09/30 04:00:56;;;;;;;9.07;7.17;;;;;;;12.38;100.00;97179.16;5051833;28;20574;-77
2021/09/30 04:03:23;;;;;;;7.57;6.73;;;;;;;12.30;100.00;97185.16;5070930;28;20197;-77
2021/09/30 04:05:50;;;;;;;6.77;6.17;;;;;;;12.32;100.00;97172.66;5050228;28;20211;-77
2021/09/30 04:08:17;;;;;;;7.50;6.47;;;;;;;12.31;100.00;97178.91;5050901;28;20279;-77
2021/09/30 04:10:46;;;;;;;8.20;7.03;;;;;;;12.28;100.00;97187.09;5050961;28;20207;-76
2021/09/30 04:13:13;;;;;;;10.67;6.93;;;;;;;12.25;100.00;97183.94;5050774;28;20225;-77
2021/09/30 04:15:41;;;;;;;8.03;6.83;;;;;;;12.16;100.00;97176.91;5051142;28;20240;-76
2021/09/30 04:18:08;;;;;;;6.87;6.37;;;;;;;12.08;100.00;97175.00;5051592;28;20202;-76
2021/09/30 04:20:35;;;;;;;7.07;6.23;;;;;;;11.95;100.00;97179.75;5051753;28;20201;-76
2021/09/30 04:23:03;;;;;;;6.30;5.70;;;;;;;11.92;100.00;97178.28;5051557;28;20204;-76
2021/09/30 04:25:31;;;;;;;7.03;5.20;;;;;;;11.97;100.00;97165.47;5051661;28;20194;-77
2021/09/30 04:28:00;;;;;;;6.27;5.43;;;;;;;11.89;100.00;97175.91;5050715;28;20201;-76
2021/09/30 04:30:27;;;;;;;7.67;5.70;;;;;;;11.84;100.00;97172.88;5051393;28;20582;-76
2021/09/30 04:32:54;;;;;;;6.47;5.50;;;;;;;11.80;100.00;97171.47;5051421;28;20229;-76
2021/09/30 04:35:22;;;;;;;9.43;5.70;;;;;;;12.04;100.00;97182.38;5051393;28;20200;-76
2021/09/30 04:37:49;;;;;;;5.37;4.93;;;;;;;12.14;100.00;97184.97;5051464;28;20200;-77
2021/09/30 04:40:17;;;;;;;5.43;4.93;;;;;;;11.96;100.00;97191.97;5051539;28;20202;-76
2021/09/30 04:42:44;;;;;;;5.03;4.63;;;;;;;11.98;100.00;97196.09;5051686;28;20600;-76
2021/09/30 04:45:13;;;;;;;5.20;4.80;;;;;;;11.96;100.00;97199.88;5051582;28;20202;-77
2021/09/30 04:47:40;;;;;;;5.60;4.90;;;;;;;11.96;100.00;97192.81;5051351;28;20204;-76
2021/09/30 04:50:09;;;;;;;6.00;5.00;;;;;;;11.85;100.00;97193.00;5051469;28;20201;-77
2021/09/30 04:52:37;;;;;;;6.20;5.60;;;;;;;11.83;100.00;97200.16;5051278;28;20313;-76
2021/09/30 04:55:05;;;;;;;6.63;5.23;;;;;;;11.79;100.00;97191.72;5051235;28;20202;-76
2021/09/30 04:57:32;;;;;;;5.77;4.80;;;;;;;11.80;100.00;97193.38;5050985;28;20255;-76
2021/09/30 04:59:59;;;;;;;5.63;5.13;;;;;;;11.81;100.00;97186.28;5051378;28;20194;-77
2021/09/30 05:02:28;;;;;;;7.67;6.10;;;;;;;11.64;100.00;97195.78;5051188;28;20193;-76
2021/09/30 05:04:55;;;;;;;7.67;5.17;;;;;;;11.82;100.00;97190.63;5051373;28;20198;-76
2021/09/30 05:07:22;;;;;;;6.97;5.53;;;;;;;11.60;100.00;97187.34;5050946;28;20204;-76
2021/09/30 05:09:52;;;;;;;6.43;5.70;;;;;;;11.79;100.00;97190.91;5051311;28;20246;-76
2021/09/30 05:12:21;;;;;;;5.07;4.67;;;;;;;11.75;100.00;97194.78;5051035;28;20218;-76
2021/09/30 05:14:49;;;;;;;6.53;5.20;;;;;;;11.97;100.00;97191.81;5051285;28;20200;-76
2021/09/30 05:17:16;;;;;;;6.53;5.17;;;;;;;11.96;100.00;97199.88;5050763;28;20203;-76
2021/09/30 05:19:45;;;;;;;5.37;4.73;;;;;;;11.96;100.00;97202.53;5051219;28;20201;-76
2021/09/30 05:22:12;;;;;;;9.20;5.40;;;;;;;11.92;100.00;97204.63;5050966;28;20234;-76
2021/09/30 05:24:39;;;;;;;5.53;5.03;;;;;;;12.04;100.00;97211.34;5051238;28;20204;-76
2021/09/30 05:27:06;;;;;;;6.83;5.13;;;;;;;11.97;100.00;97214.72;5051756;28;20203;-76
2021/09/30 05:29:34;;;;;;;5.57;5.07;;;;;;;12.07;100.00;97211.06;5054818;28;20295;-76
2021/09/30 05:32:01;;;;;;;6.90;5.43;;;;;;;12.15;100.00;97218.25;5054425;28;20232;-76
2021/09/30 05:34:28;;;;;;;7.87;5.00;;;;;;;12.11;100.00;97216.88;5055011;28;20259;-76
2021/09/30 05:36:57;;;;;;;6.03;5.30;;;;;;;12.07;100.00;97221.59;5054675;28;20198;-76
2021/09/30 05:39:24;;;;;;;7.70;5.17;;;;;;;12.18;100.00;97217.13;5054423;28;20204;-76
2021/09/30 05:41:54;;;;;;;7.47;5.00;;;;;;;12.21;100.00;97222.94;5054666;28;20251;-76
2021/09/30 05:44:23;;;;;;;10.40;6.47;;;;;;;12.24;100.00;97219.19;5054810;28;20255;-76
2021/09/30 05:46:54;;;;;;;5.07;4.60;;;;;;;12.18;100.00;97225.84;5054845;28;20276;-77
2021/09/30 05:49:23;;;;;;;12.57;5.13;;;;;;;12.36;100.00;97231.19;5054541;28;20225;-76
2021/09/30 05:51:50;;;;;;;6.23;4.37;;;;;;;12.44;100.00;97241.84;5054119;28;20200;-76
2021/09/30 05:54:19;;;;;;;6.73;4.23;;;;;;;12.51;100.00;97248.19;5054476;28;20285;-76
2021/09/30 05:56:46;;;;;;;5.60;4.50;;;;;;;12.70;100.00;97247.25;5053625;28;20603;-76
2021/09/30 05:59:18;;;;;;;4.77;4.37;;;;;;;12.70;100.00;97254.34;5054243;28;20562;-76
2021/09/30 06:10:28;;;;;;;5.43;4.17;;;;;;;12.78;100.00;97259.69;4973681;28;20228;-76
2021/09/30 06:12:59;;;;;;;8.50;4.80;;;;;;;13.12;100.00;97261.69;5021024;28;20635;-76
2021/09/30 06:15:30;;;;;;;11.03;4.97;;;;;;;13.14;100.00;97268.50;5052161;28;20193;-76
2021/09/30 06:17:59;;;;;;;6.70;4.37;;;;;;;13.50;100.00;97268.50;5052669;28;20277;-76
2021/09/30 06:20:26;;;;;;;7.97;4.50;;;;;;;13.57;100.00;97266.91;5053910;28;20228;-76
2021/09/30 06:22:54;;;;;;;8.33;5.17;;;;;;;13.74;100.00;97271.34;5053921;28;20189;-76
2021/09/30 06:25:21;;;;;;;8.90;4.93;;;;;;;13.68;100.00;97279.91;5053471;28;20200;-76
2021/09/30 06:27:50;;;;;;;8.37;5.27;;;;;;;13.68;100.00;97286.97;5053527;28;20203;-77
2021/09/30 06:30:19;;;;;;;5.93;4.37;;;;;;;13.90;100.00;97283.03;5053652;28;20208;-77
2021/09/30 06:32:48;;;;;;;7.00;4.07;;;;;;;14.09;100.00;97284.63;5053388;28;20218;-77
2021/09/30 06:35:15;;;;;;;5.40;4.00;;;;;;;14.28;100.00;97301.13;5053265;28;20202;-77
2021/09/30 06:37:42;;;;;;;6.00;3.47;;;;;;;14.11;100.00;97303.81;5053343;28;20206;-77
2021/09/30 06:40:10;;;;;;;9.10;4.00;;;;;;;14.13;100.00;97299.19;5053436;28;20230;-77
2021/09/30 06:42:38;;;;;;;5.57;3.57;;;;;;;14.25;100.00;97297.97;5053562;28;20193;-77
2021/09/30 06:45:09;;;;;;;5.57;3.63;;;;;;;14.03;100.00;97296.69;5053437;28;20201;-76
2021/09/30 06:47:39;;;;;;;4.03;3.47;;;;;;;14.20;100.00;97289.66;5053104;28;20194;-76
2021/09/30 06:50:09;;;;;;;5.27;4.30;;;;;;;14.54;100.00;97300.28;5053848;28;20601;-76
2021/09/30 06:52:36;;;;;;;6.40;4.17;;;;;;;14.53;100.00;97301.28;5052890;28;20313;-77
2021/09/30 06:55:04;;;;;;;6.50;4.17;;;;;;;14.40;100.00;97301.66;5053208;28;20558;-77
2021/09/30 06:57:31;;;;;;;7.77;4.33;;;;;;;14.31;100.00;97301.81;5052598;28;20230;-77
2021/09/30 07:00:01;;;;;;;7.20;4.67;;;;;;;14.54;100.00;97299.47;5053067;28;20685;-77
2021/09/30 07:02:30;;;;;;;7.00;4.17;;;;;;;14.48;100.00;97295.63;5052855;28;20202;-76
2021/09/30 07:04:57;;;;;;;3.97;3.67;;;;;;;14.51;100.00;97300.59;5053001;28;20197;-76
2021/09/30 07:07:24;;;;;;;12.20;6.27;;;;;;;14.85;100.00;97305.03;5053013;28;20197;-76
2021/09/30 07:09:51;;;;;;;9.17;4.97;;;;;;;15.27;100.00;97302.34;5052899;28;20201;-77
2021/09/30 07:12:19;;;;;;;10.53;4.80;;;;;;;15.49;100.00;97302.75;5052825;28;20198;-77
2021/09/30 07:14:46;;;;;;;12.53;5.73;;;;;;;15.59;100.00;97301.59;5052533;28;20390;-77
2021/09/30 07:17:13;;;;;;;12.43;5.53;;;;;;;15.48;100.00;97311.66;5052895;28;20224;-76
2021/09/30 07:19:42;;;;;;;12.70;5.83;;;;;;;15.23;100.00;97314.25;5052690;28;20198;-76
2021/09/30 07:22:10;;;;;;;6.13;5.10;;;;;;;15.04;100.00;97311.91;5052564;28;20198;-77
2021/09/30 07:24:38;;;;;;;9.83;4.70;;;;;;;15.01;100.00;97297.16;5052552;28;20200;-76
2021/09/30 07:27:07;;;;;;;9.70;4.90;;;;;;;14.93;100.00;97311.22;5052370;28;20289;-77
2021/09/30 07:29:34;;;;;;;6.20;4.30;;;;;;;14.94;100.00;97314.69;5052506;28;20201;-77
2021/09/30 07:32:02;;;;;;;6.07;4.30;;;;;;;14.97;100.00;97317.84;5052410;28;20204;-77
2021/09/30 07:34:29;;;;;;;9.37;4.03;;;;;;;14.78;100.00;97323.38;5052339;28;20228;-77
2021/09/30 07:36:58;;;;;;;5.37;3.83;;;;;;;14.70;100.00;97308.31;5052232;28;20208;-76
2021/09/30 07:39:25;;;;;;;4.90;3.70;;;;;;;14.74;100.00;97311.47;5052344;28;20205;-77
2021/09/30 07:41:53;;;;;;;6.87;4.30;;;;;;;14.93;100.00;97313.88;5052161;28;20206;-77
2021/09/30 07:44:20;;;;;;;5.77;4.30;;;;;;;14.90;100.00;97311.53;5052083;28;20663;-77
2021/09/30 07:46:48;;;;;;;4.73;3.90;;;;;;;15.12;100.00;97298.69;5052084;28;20198;-77
2021/09/30 07:49:16;;;;;;;5.43;3.60;;;;;;;15.28;100.00;97325.22;5052335;28;20222;-77
2021/09/30 07:51:44;;;;;;;8.20;4.60;;;;;;;15.40;100.00;97339.78;5051857;28;20202;-77
2021/09/30 07:54:14;;;;;;;5.97;2.93;;;;;;;15.54;100.00;97364.81;5051995;28;20232;-77
2021/09/30 07:56:41;;;;;;;7.87;4.10;;;;;;;15.27;100.00;97365.91;5051522;28;20682;-77
2021/09/30 07:59:09;;;;;;;5.07;3.70;;;;;;;15.48;100.00;97365.47;5052058;28;20725;-77
2021/09/30 08:01:36;;;;;;;7.23;4.30;;;;;;;15.55;100.00;97363.84;5052164;28;20214;-77
2021/09/30 08:04:04;;;;;;;9.73;3.60;;;;;;;15.73;100.00;97354.97;5051626;28;20585;-77
2021/09/30 08:06:32;;;;;;;5.23;3.37;;;;;;;15.90;100.00;97361.94;5051925;28;20556;-77
2021/09/30 08:09:00;;;;;;;5.43;3.23;;;;;;;16.12;100.00;97365.72;5052156;28;20201;-77
2021/09/30 08:11:28;;;;;;;5.10;3.10;;;;;;;15.81;100.00;97369.03;5051914;28;20279;-77
2021/09/30 08:13:56;;;;;;;4.80;3.40;;;;;;;16.00;100.00;97372.34;5051636;28;20273;-77
2021/09/30 08:16:26;;;;;;;5.33;3.30;;;;;;;15.96;100.00;97373.69;5051821;28;20200;-77
2021/09/30 08:18:55;;;;;;;5.07;4.30;;;;;;;16.16;100.00;97359.91;5052224;28;20277;-77
2021/09/30 08:21:23;;;;;;;6.10;4.23;;;;;;;16.20;100.00;97347.16;5051830;28;20208;-77
2021/09/30 08:23:50;;;;;;;7.50;4.00;;;;;;;16.03;100.00;97364.06;5051570;28;20287;-77
2021/09/30 08:26:19;;;;;;;3.97;2.50;;;;;;;15.88;100.00;97370.03;5051734;28;20206;-77
2021/09/30 08:28:51;;;;;;;6.10;3.27;;;;;;;15.56;100.00;97365.50;5051555;28;20258;-77
2021/09/30 08:31:19;;;;;;;4.63;2.60;;;;;;;15.92;100.00;97352.78;5051505;28;20659;-77
2021/09/30 08:33:47;;;;;;;4.57;3.40;;;;;;;16.17;100.00;97356.28;5051363;28;20281;-77
2021/09/30 08:36:14;;;;;;;4.27;3.43;;;;;;;16.22;100.00;97366.38;5051691;28;20207;-77
2021/09/30 08:38:42;;;;;;;8.00;3.30;;;;;;;16.36;100.00;97357.75;5051440;28;20212;-77
2021/09/30 08:41:12;;;;;;;5.80;3.07;;;;;;;16.52;100.00;97366.66;5051950;28;20207;-77
2021/09/30 08:43:39;;;;;;;4.73;3.50;;;;;;;17.19;100.00;97364.50;5051111;28;20235;-77
2021/09/30 08:46:08;;;;;;;4.80;3.27;;;;;;;17.67;100.00;97383.84;5051572;28;20235;-77
2021/09/30 08:48:36;;;;;;;3.77;2.20;;;;;;;18.46;100.00;97376.44;5051315;28;20201;-77
2021/09/30 08:51:03;;;;;;;3.33;2.80;;;;;;;19.43;100.00;97375.50;5051581;28;20198;-77
2021/09/30 08:53:31;;;;;;;5.50;3.17;;;;;;;19.76;100.00;97380.41;5051231;28;20235;-77
2021/09/30 08:55:58;;;;;;;2.83;2.33;;;;;;;18.82;100.00;97380.25;5051831;28;20622;-77
2021/09/30 08:58:25;;;;;;;3.43;2.60;;;;;;;19.04;100.00;97374.00;5051089;28;20778;-77
2021/09/30 09:00:57;;;;;;;3.23;2.90;;;;;;;18.98;100.00;97369.38;5051397;28;20201;-77
2021/09/30 09:03:38;;;;;;;4.53;2.60;;;;;;;18.14;100.00;97382.03;5054307;28;20179;-77
2021/09/30 09:06:07;;;;;;;5.60;3.10;;;;;;;18.27;100.00;97382.25;5055557;28;20221;-77
2021/09/30 09:08:34;;;;;;;4.33;2.67;;;;;;;18.29;100.00;97382.91;5055019;28;20194;-77
2021/09/30 09:11:03;;;;;;;4.73;3.03;;;;;;;17.95;100.00;97376.19;5055323;28;20204;-77
2021/09/30 09:13:31;;;;;;;5.70;2.80;;;;;;;17.62;100.00;97383.53;5054972;28;20217;-77
2021/09/30 09:16:00;;;;;;;5.73;2.40;;;;;;;18.01;100.00;97377.28;5055064;28;20194;-77
2021/09/30 09:18:29;;;;;;;7.23;3.10;;;;;;;18.75;100.00;97362.34;5054880;28;20271;-77
2021/09/30 09:21:08;;;;;;;4.83;2.87;;;;;;;18.34;100.00;97379.69;5055014;28;20231;-77
2021/09/30 09:23:41;;;;;;;4.70;3.40;;;;;;;18.30;100.00;97373.91;5055062;28;20189;-77
2021/09/30 09:26:14;;;;;;;6.60;3.30;;;;;;;18.24;100.00;97372.78;5054923;28;20190;-78
2021/09/30 09:29:02;;;;;;;5.37;3.20;;;;;;;18.94;100.00;97373.44;5054448;28;20248;-78
2021/09/30 09:31:31;;;;;;;6.00;3.27;;;;;;;19.92;100.00;97375.66;5054789;28;20190;-77
2021/09/30 09:33:59;;;;;;;3.50;2.80;;;;;;;19.52;100.00;97382.38;5054508;28;20698;-77
2021/09/30 09:36:29;;;;;;;5.30;3.20;;;;;;;19.58;100.00;97378.97;5054535;28;20194;-78
2021/09/30 09:38:58;;;;;;;3.57;2.60;;;;;;;19.11;100.00;97382.88;5054534;28;20209;-78
2021/09/30 09:41:28;;;;;;;5.10;2.50;;;;;;;18.60;100.00;97372.13;5054899;28;20208;-77
2021/09/30 09:43:57;;;;;;;4.23;2.80;;;;;;;18.06;100.00;97375.75;5054713;28;20186;-78
2021/09/30 09:46:29;;;;;;;3.07;2.83;;;;;;;17.92;100.00;97370.41;5054310;28;20567;-77
2021/09/30 09:49:00;;;;;;;3.40;3.10;;;;;;;17.88;100.00;97372.59;5054271;28;20187;-77
2021/09/30 09:51:35;;;;;;;4.60;2.50;;;;;;;17.75;100.00;97375.78;5054797;28;20567;-78
2021/09/30 09:54:08;;;;;;;4.63;2.87;;;;;;;17.64;100.00;97378.88;5054254;28;20213;-78
2021/09/30 09:56:35;;;;;;;6.10;3.17;;;;;;;17.63;100.00;97376.38;5054111;28;20192;-77
2021/09/30 09:59:02;;;;;;;2.80;2.57;;;;;;;17.97;100.00;97370.69;5014823;28;20203;-78
2021/09/30 10:01:39;;;;;;;8.77;3.40;;;;;;;18.32;100.00;97371.06;5014826;28;20206;-78
2021/09/30 10:04:06;;;;;;;5.50;2.90;;;;;;;19.00;100.00;97362.88;5014530;28;20191;-78
2021/09/30 10:06:37;;;;;;;15.30;7.87;;;;;;;19.86;100.00;97364.91;5014646;28;20199;-77
2021/09/30 10:09:06;;;;;;;8.80;3.77;;;;;;;19.60;100.00;97371.56;5014125;28;20196;-77
2021/09/30 10:11:35;;;;;;;3.00;2.60;;;;;;;19.57;100.00;97363.97;5014583;28;20269;-78
2021/09/30 10:14:05;;;;;;;5.10;2.63;;;;;;;19.19;100.00;97358.00;5014125;28;20227;-77
2021/09/30 10:16:34;;;;;;;3.43;3.10;;;;;;;20.54;100.00;97366.16;5014267;28;20194;-77
2021/09/30 10:19:03;;;;;;;4.10;3.67;;;;;;;21.15;100.00;97360.09;5014539;28;20203;-78
2021/09/30 10:21:32;;;;;;;5.10;3.17;;;;;;;20.19;100.00;97358.03;5014137;28;20206;-78
2021/09/30 10:24:02;;;;;;;7.47;4.10;;;;;;;19.10;100.00;97337.78;5013936;28;20195;-77
2021/09/30 10:26:40;;;;;;;5.73;3.20;;;;;;;18.37;100.00;97342.91;5013859;28;20238;-77
2021/09/30 10:29:08;;;;;;;5.23;3.60;;;;;;;17.88;100.00;97343.34;5013989;28;20674;-78
2021/09/30 10:31:37;;;;;;;4.10;3.20;;;;;;;17.90;100.00;97348.47;5013967;28;20210;-77
2021/09/30 10:34:06;;;;;;;5.17;3.43;;;;;;;17.63;100.00;97349.78;5014106;28;20663;-78
2021/09/30 10:36:37;;;;;;;11.87;3.30;;;;;;;17.61;100.00;97349.97;5013681;28;20663;-78
2021/09/30 10:39:30;;;;;;;6.77;3.20;;;;;;;17.69;100.00;97351.75;5013740;28;20634;-78
2021/09/30 10:42:00;;;;;;;13.80;3.93;;;;;;;17.61;100.00;97352.63;5013702;28;20205;-78
2021/09/30 10:44:34;;;;;;;7.10;3.57;;;;;;;17.65;100.00;97351.28;5013830;28;20186;-78
2021/09/30 10:47:02;;;;;;;6.20;3.30;;;;;;;17.59;100.00;97354.63;5013361;28;20230;-78
2021/09/30 10:49:41;;;;;;;3.83;3.50;;;;;;;17.57;100.00;97348.69;5013658;28;20210;-78
2021/09/30 10:52:30;;;;;;;5.43;3.50;;;;;;;17.32;100.00;97348.81;5013445;28;20198;-78
2021/09/30 10:55:33;;;;;;;4.43;2.80;;;;;;;17.42;100.00;97342.44;5009300;28;20281;-78
2021/09/30 10:58:03;;;;;;;12.40;7.77;;;;;;;17.52;100.00;97335.06;5036062;28;20660;-78
2021/09/30 11:00:51;;;;;;;5.97;4.17;;;;;;;17.91;100.00;97336.81;5053433;28;20624;-77
2021/09/30 11:03:22;;;;;;;6.27;4.10;;;;;;;18.03;100.00;97340.72;5052944;28;20194;-78
2021/09/30 11:06:24;;;;;;;15.93;9.40;;;;;;;18.05;100.00;97336.88;5053008;28;20182;-78
2021/09/30 11:09:14;;;;;;;17.30;15.37;;;;;;;17.93;100.00;97329.50;5049168;28;20200;-78
2021/09/30 11:11:42;;;;;;;6.27;3.00;;;;;;;17.76;100.00;97328.78;5052912;28;20273;-78
2021/09/30 11:14:22;;;;;;;7.53;3.30;;;;;;;18.72;100.00;97319.25;5052684;28;20233;-78
2021/09/30 11:16:55;;;;;;;15.53;11.80;;;;;;;19.47;100.00;97334.13;5052641;28;20276;-78
2021/09/30 11:19:33;;;;;;;4.87;3.57;;;;;;;19.08;100.00;97332.63;5052849;28;20197;-78
2021/09/30 11:22:02;;;;;;;3.43;3.13;;;;;;;19.44;100.00;97318.50;5052510;28;20217;-78
2021/09/30 11:24:33;;;;;;;21.83;17.70;;;;;;;19.52;100.00;97314.88;5052006;28;20194;-78
2021/09/30 11:27:31;;;;;;;17.50;13.67;;;;;;;19.77;100.00;97326.03;5052590;28;20259;-78
2021/09/30 11:30:23;;;;;;;6.57;3.27;;;;;;;19.39;100.00;97326.22;5052329;28;20182;-78
2021/09/30 11:32:57;;;;;;;6.00;2.70;;;;;;;18.82;100.00;97330.47;5052388;28;20268;-78
2021/09/30 11:35:24;;;;;;;3.43;3.13;;;;;;;18.68;100.00;97329.44;5052751;28;20232;-78
2021/09/30 11:37:51;;;;;;;5.67;3.57;;;;;;;18.51;100.00;97327.94;5052596;28;20206;-78
2021/09/30 11:40:21;;;;;;;8.30;3.67;;;;;;;18.33;100.00;97333.63;5052682;28;20236;-78
2021/09/30 11:42:53;;;;;;;7.30;3.40;;;;;;;18.40;100.00;97320.44;5051965;28;20197;-78
2021/09/30 11:45:24;;;;;;;3.77;3.00;;;;;;;18.47;100.00;97327.50;5052647;28;20600;-78
2021/09/30 11:47:52;;;;;;;3.53;3.17;;;;;;;18.36;100.00;97319.13;5052093;28;20197;-78
2021/09/30 11:50:23;;;;;;;4.47;3.77;;;;;;;18.45;100.00;97332.16;5052171;28;20201;-78
2021/09/30 11:53:06;;;;;;;5.63;3.30;;;;;;;18.45;100.00;97334.00;5052280;28;20197;-78
2021/09/30 11:55:40;;;;;;;12.90;6.33;;;;;;;18.42;100.00;97323.72;5052455;28;20217;-78
2021/09/30 11:58:09;;;;;;;13.37;9.53;;;;;;;18.37;100.00;97323.44;5051889;28;20621;-78
2021/09/30 12:00:38;;;;;;;25.50;21.60;;;;;;;18.36;100.00;97319.13;5052096;28;20204;-78
2021/09/30 12:03:07;;;;;;;5.77;3.67;;;;;;;18.59;100.00;97317.22;5051916;28;20224;-78
2021/09/30 12:05:37;;;;;;;5.77;3.00;;;;;;;18.83;100.00;97323.31;5052002;28;20293;-79
2021/09/30 12:08:06;;;;;;;19.43;14.70;;;;;;;18.88;100.00;97318.25;5052152;28;20216;-78
2021/09/30 12:10:36;;;;;;;7.63;4.17;;;;;;;18.84;100.00;97322.28;5051712;28;20202;-78
2021/09/30 12:13:13;;;;;;;3.27;2.80;;;;;;;18.59;100.00;97311.06;5051685;28;20208;-78
2021/09/30 12:15:42;;;;;;;3.10;2.80;;;;;;;18.33;100.00;97315.00;5051839;28;20205;-78
2021/09/30 12:18:20;;;;;;;4.40;2.77;;;;;;;18.46;100.00;97314.34;5051652;28;20293;-78
2021/09/30 12:20:52;;;;;;;7.20;3.50;;;;;;;18.58;100.00;97314.75;5051831;28;20194;-78
2021/09/30 12:23:19;;;;;;;3.10;2.37;;;;;;;18.54;100.00;97312.44;5051724;28;20220;-78
2021/09/30 12:25:47;;;;;;;5.17;2.97;;;;;;;18.37;100.00;97310.97;5051774;28;20205;-78
2021/09/30 12:28:14;;;;;;;4.80;2.93;;;;;;;18.35;100.00;97304.16;5051591;28;20194;-78
2021/09/30 12:30:44;;;;;;;5.53;3.20;;;;;;;18.24;100.00;97300.13;5051746;28;20190;-78
2021/09/30 12:33:12;;;;;;;4.00;3.03;;;;;;;18.22;100.00;97297.66;5051436;28;20264;-78
2021/09/30 12:35:40;;;;;;;7.30;3.50;;;;;;;18.11;100.00;97311.38;5051825;28;20226;-78
2021/09/30 12:38:12;;;;;;;3.50;3.20;;;;;;;18.17;100.00;97289.38;5055613;28;20201;-78
2021/09/30 12:40:41;;;;;;;4.83;2.97;;;;;;;18.20;100.00;97293.50;5056092;28;20233;-78
2021/09/30 12:43:10;;;;;;;4.20;3.43;;;;;;;18.12;100.00;97290.94;5055625;28;20204;-78
2021/09/30 12:45:39;;;;;;;4.90;2.87;;;;;;;18.02;100.00;97299.16;5055918;28;20190;-77
2021/09/30 12:48:10;;;;;;;3.20;2.90;;;;;;;18.07;100.00;97299.44;5055791;28;20201;-77
2021/09/30 12:50:44;;;;;;;10.30;3.47;;;;;;;18.06;100.00;97295.13;5055359;28;20192;-77
2021/09/30 12:53:13;;;;;;;8.40;3.80;;;;;;;18.18;100.00;97291.00;5055706;28;20186;-77
2021/09/30 12:55:41;;;;;;;4.87;3.10;;;;;;;18.15;100.00;97296.72;5055367;28;20221;-78
2021/09/30 12:58:28;;;;;;;4.47;3.23;;;;;;;18.11;100.00;97307.88;5055117;28;20706;-78
2021/09/30 13:00:56;;;;;;;4.20;2.90;;;;;;;18.13;100.00;97298.72;5055751;28;20581;-78
2021/09/30 13:03:26;;;;;;;5.17;3.90;;;;;;;18.05;100.00;97294.31;5055170;28;20237;-78
2021/09/30 13:05:55;;;;;;;4.60;3.20;;;;;;;18.05;100.00;97307.63;5055272;28;20205;-78
2021/09/30 13:08:40;;;;;;;5.00;3.87;;;;;;;18.27;100.00;97299.75;5055093;28;20576;-78
2021/09/30 13:11:37;;;;;;;4.70;3.00;;;;;;;18.23;100.00;97299.28;5055518;28;20194;-78
2021/09/30 13:14:15;;;;;;;5.43;3.30;;;;;;;18.12;100.00;97305.06;4974313;28;20204;-78
2021/09/30 13:16:42;;;;;;;6.43;3.13;;;;;;;18.17;100.00;97305.31;5042495;28;20197;-78
2021/09/30 13:19:11;;;;;;;7.70;3.73;;;;;;;18.06;100.00;97311.91;5055012;28;20198;-78
2021/09/30 13:21:59;;;;;;;4.30;2.80;;;;;;;17.89;100.00;97296.28;5055175;28;20197;-78
2021/09/30 13:24:28;;;;;;;5.47;3.23;;;;;;;17.69;100.00;97301.22;5054932;28;20209;-78
2021/09/30 13:26:55;;;;;;;9.17;3.63;;;;;;;17.73;100.00;97303.34;5054782;28;20202;-77
2021/09/30 13:29:23;;;;;;;3.70;2.57;;;;;;;17.65;100.00;97295.44;5054691;28;20202;-78
2021/09/30 13:31:50;;;;;;;7.13;2.83;;;;;;;17.59;100.00;97296.16;5054966;28;20568;-78
2021/09/30 13:34:19;;;;;;;5.33;3.77;;;;;;;17.58;100.00;97292.66;5054983;28;20194;-78
2021/09/30 13:36:47;;;;;;;3.43;2.63;;;;;;;17.65;100.00;97287.47;5054556;28;20699;-78
2021/09/30 13:39:14;;;;;;;5.53;2.83;;;;;;;17.58;100.00;97289.19;5054718;28;20209;-78
2021/09/30 13:41:42;;;;;;;3.77;2.80;;;;;;;17.55;100.00;97284.22;5054612;28;20252;-78
2021/09/30 13:44:09;;;;;;;4.03;2.93;;;;;;;17.46;100.00;97282.66;5054807;28;20204;-78
2021/09/30 13:46:37;;;;;;;5.17;3.53;;;;;;;17.31;100.00;97283.38;5054634;28;20204;-78
2021/09/30 13:49:05;;;;;;;6.90;3.90;;;;;;;17.29;100.00;97280.09;5053421;28;20202;-78
2021/09/30 13:51:34;;;;;;;6.60;4.87;;;;;;;17.30;100.00;97283.56;5054402;28;20205;-77
2021/09/30 13:54:02;;;;;;;5.57;3.00;;;;;;;17.18;100.00;97280.50;5054265;28;20201;-77
2021/09/30 13:56:31;;;;;;;5.60;3.30;;;;;;;17.14;100.00;97281.00;5054270;28;20228;-77
2021/09/30 13:58:58;;;;;;;9.87;3.53;;;;;;;17.12;100.00;97273.22;5053711;28;20238;-78
2021/09/30 14:01:26;;;;;;;3.70;3.00;;;;;;;17.06;100.00;97274.75;5054297;28;20296;-77
2021/09/30 14:03:54;;;;;;;4.70;4.13;;;;;;;17.03;100.00;97276.91;5054023;28;20198;-78
2021/09/30 14:06:21;;;;;;;4.20;3.00;;;;;;;16.95;100.00;97272.47;5054121;28;20202;-78
2021/09/30 14:08:53;;;;;;;5.57;3.50;;;;;;;17.03;100.00;97274.25;5053728;28;20204;-78